sensor_id;sensor_type;location;lat;lon;timestamp;pressure;altitude;pressure_sealevel;temperature;humidity
11525;BME280;5819;49.648;8.330;2023-07-30T00:01:01;99835.66;;;19.97;100.00
11525;BME280;5819;49.648;8.330;2023-07-30T00:03:28;99837.41;;;19.87;100.00
11525;BME280;5819;49.648;8.330;2023-07-30T00:05:57;99833.13;;;19.95;100.00
11525;BME280;5819;49.648;8.330;2023-07-30T00:08:25;99836.75;;;19.85;100.00
11525;BME280;5819;49.648;8.330;2023-07-30T00:10:56;99836.59;;;19.86;100.00
11525;BME280;5819;49.648;8.330;2023-07-30T00:13:23;99837.81;;;19.82;100.00
11525;BME280;5819;49.648;8.330;2023-07-30T00:15:52;99840.31;;;19.74;100.00
11525;BME280;5819;49.648;8.330;2023-07-30T00:18:21;99845.34;;;19.77;100.00
11525;BME280;5819;49.648;8.330;2023-07-30T00:20:49;99841.03;;;19.76;100.00
11525;BME280;5819;49.648;8.330;2023-07-30T00:23:17;99838.50;;;19.75;100.00
11525;BME280;5819;49.648;8.330;2023-07-30T00:25:45;99841.03;;;19.76;100.00
11525;BME280;5819;49.648;8.330;2023-07-30T00:28:13;99846.47;;;19.84;100.00
11525;BME280;5819;49.648;8.330;2023-07-30T00:30:41;99851.34;;;19.89;100.00
11525;BME280;5819;49.648;8.330;2023-07-30T00:33:09;99849.78;;;19.86;100.00
11525;BME280;5819;49.648;8.330;2023-07-30T00:35:38;99848.81;;;19.87;100.00
11525;BME280;5819;49.648;8.330;2023-07-30T00:38:06;99848.13;;;19.85;100.00
11525;BME280;5819;49.648;8.330;2023-07-30T00:40:39;99858.41;;;19.88;100.00
11525;BME280;5819;49.648;8.330;2023-07-30T00:43:07;99854.25;;;19.86;100.00
11525;BME280;5819;49.648;8.330;2023-07-30T00:45:36;99862.56;;;19.81;100.00
11525;BME280;5819;49.648;8.330;2023-07-30T00:48:05;99864.66;;;19.78;100.00
11525;BME280;5819;49.648;8.330;2023-07-30T00:50:33;99861.72;;;19.71;100.00
11525;BME280;5819;49.648;8.330;2023-07-30T00:53:03;99868.09;;;19.69;100.00
11525;BME280;5819;49.648;8.330;2023-07-30T00:55:31;99864.34;;;19.61;100.00
11525;BME280;5819;49.648;8.330;2023-07-30T00:58:00;99866.69;;;19.65;100.00
11525;BME280;5819;49.648;8.330;2023-07-30T01:00:27;99873.06;;;19.62;100.00
11525;BME280;5819;49.648;8.330;2023-07-30T01:02:56;99870.56;;;19.60;100.00
11525;BME280;5819;49.648;8.330;2023-07-30T01:05:24;99872.22;;;19.52;100.00
11525;BME280;5819;49.648;8.330;2023-07-30T01:07:53;99874.97;;;19.50;100.00
11525;BME280;5819;49.648;8.330;2023-07-30T01:10:22;99877.94;;;19.57;100.00
11525;BME280;5819;49.648;8.330;2023-07-30T01:12:51;99868.47;;;19.54;100.00
11525;BME280;5819;49.648;8.330;2023-07-30T01:15:20;99873.72;;;19.54;100.00
11525;BME280;5819;49.648;8.330;2023-07-30T01:17:47;99876.38;;;19.54;100.00
11525;BME280;5819;49.648;8.330;2023-07-30T01:20:16;99880.97;;;19.52;100.00
11525;BME280;5819;49.648;8.330;2023-07-30T01:22:45;99873.13;;;19.41;100.00
11525;BME280;5819;49.648;8.330;2023-07-30T01:25:14;99879.47;;;19.39;100.00
11525;BME280;5819;49.648;8.330;2023-07-30T01:27:46;99885.69;;;19.28;100.00
11525;BME280;5819;49.648;8.330;2023-07-30T01:30:18;99887.47;;;19.28;100.00
11525;BME280;5819;49.648;8.330;2023-07-30T01:32:49;99886.78;;;19.26;100.00
11525;BME280;5819;49.648;8.330;2023-07-30T01:35:18;99883.75;;;19.30;100.00
11525;BME280;5819;49.648;8.330;2023-07-30T01:37:49;99890.91;;;19.18;100.00
11525;BME280;5819;49.648;8.330;2023-07-30T01:40:18;99889.25;;;19.17;100.00
11525;BME280;5819;49.648;8.330;2023-07-30T01:42:48;99887.19;;;19.21;100.00
11525;BME280;5819;49.648;8.330;2023-07-30T01:45:17;99902.94;;;19.11;100.00
11525;BME280;5819;49.648;8.330;2023-07-30T01:47:44;99895.03;;;19.11;100.00
11525;BME280;5819;49.648;8.330;2023-07-30T01:50:12;99894.47;;;19.08;100.00
11525;BME280;5819;49.648;8.330;2023-07-30T01:52:40;99898.81;;;18.98;100.00
11525;BME280;5819;49.648;8.330;2023-07-30T01:55:10;99899.09;;;18.95;100.00
11525;BME280;5819;49.648;8.330;2023-07-30T01:57:38;99902.28;;;18.98;100.00
11525;BME280;5819;49.648;8.330;2023-07-30T02:00:07;99904.75;;;18.90;100.00
11525;BME280;5819;49.648;8.330;2023-07-30T02:02:35;99911.00;;;18.89;100.00
11525;BME280;5819;49.648;8.330;2023-07-30T02:05:04;99910.84;;;18.91;100.00
11525;BME280;5819;49.648;8.330;2023-07-30T02:07:32;99920.19;;;18.95;100.00
11525;BME280;5819;49.648;8.330;2023-07-30T02:09:59;99921.31;;;19.02;100.00
11525;BME280;5819;49.648;8.330;2023-07-30T02:12:29;99917.16;;;18.99;100.00
11525;BME280;5819;49.648;8.330;2023-07-30T02:14:56;99915.38;;;19.00;100.00
11525;BME280;5819;49.648;8.330;2023-07-30T02:17:24;99915.09;;;19.03;100.00
11525;BME280;5819;49.648;8.330;2023-07-30T02:19:52;99916.41;;;19.08;100.00
11525;BME280;5819;49.648;8.330;2023-07-30T02:22:20;99913.50;;;19.11;100.00
11525;BME280;5819;49.648;8.330;2023-07-30T02:24:49;99903.06;;;19.10;100.00
11525;BME280;5819;49.648;8.330;2023-07-30T02:27:17;99909.44;;;19.07;100.00
11525;BME280;5819;49.648;8.330;2023-07-30T02:29:46;99907.75;;;19.06;100.00
11525;BME280;5819;49.648;8.330;2023-07-30T02:32:15;99914.13;;;19.04;100.00
11525;BME280;5819;49.648;8.330;2023-07-30T02:34:43;99912.34;;;19.04;100.00
11525;BME280;5819;49.648;8.330;2023-07-30T02:37:11;99908.28;;;19.00;100.00
11525;BME280;5819;49.648;8.330;2023-07-30T02:39:39;99908.75;;;19.05;100.00
11525;BME280;5819;49.648;8.330;2023-07-30T02:42:09;99920.44;;;19.12;100.00
11525;BME280;5819;49.648;8.330;2023-07-30T02:44:37;99917.94;;;19.11;100.00
11525;BME280;5819;49.648;8.330;2023-07-30T02:47:07;99922.75;;;19.06;100.00
11525;BME280;5819;49.648;8.330;2023-07-30T02:49:35;99919.88;;;19.09;100.00
11525;BME280;5819;49.648;8.330;2023-07-30T02:52:04;99928.75;;;19.08;100.00
11525;BME280;5819;49.648;8.330;2023-07-30T02:54:31;99931.88;;;19.02;100.00
11525;BME280;5819;49.648;8.330;2023-07-30T02:56:59;99935.34;;;19.02;100.00
11525;BME280;5819;49.648;8.330;2023-07-30T02:59:27;99928.16;;;19.04;100.00
11525;BME280;5819;49.648;8.330;2023-07-30T03:01:55;99931.63;;;19.05;100.00
11525;BME280;5819;49.648;8.330;2023-07-30T03:04:25;99926.22;;;19.06;100.00
11525;BME280;5819;49.648;8.330;2023-07-30T03:06:53;99915.38;;;19.00;100.00
11525;BME280;5819;49.648;8.330;2023-07-30T03:09:21;99914.97;;;19.04;100.00
11525;BME280;5819;49.648;8.330;2023-07-30T03:11:49;99903.59;;;19.04;100.00
11525;BME280;5819;49.648;8.330;2023-07-30T03:14:17;99912.53;;;18.92;100.00
11525;BME280;5819;49.648;8.330;2023-07-30T03:16:47;99922.03;;;18.83;100.00
11525;BME280;5819;49.648;8.330;2023-07-30T03:19:16;99930.00;;;18.72;100.00
11525;BME280;5819;49.648;8.330;2023-07-30T03:21:44;99930.84;;;18.73;100.00
11525;BME280;5819;49.648;8.330;2023-07-30T03:24:12;99928.06;;;18.74;100.00
11525;BME280;5819;49.648;8.330;2023-07-30T03:26:40;99927.19;;;18.85;100.00
11525;BME280;5819;49.648;8.330;2023-07-30T03:29:08;99934.13;;;18.86;100.00
11525;BME280;5819;49.648;8.330;2023-07-30T03:31:36;99923.53;;;18.76;100.00
11525;BME280;5819;49.648;8.330;2023-07-30T03:34:05;99945.19;;;18.80;100.00
11525;BME280;5819;49.648;8.330;2023-07-30T03:36:33;99941.13;;;18.76;100.00
11525;BME280;5819;49.648;8.330;2023-07-30T03:39:02;99946.50;;;18.85;100.00
11525;BME280;5819;49.648;8.330;2023-07-30T03:41:30;99935.94;;;18.85;100.00
11525;BME280;5819;49.648;8.330;2023-07-30T03:43:58;99944.66;;;18.86;100.00
11525;BME280;5819;49.648;8.330;2023-07-30T03:46:25;99936.63;;;18.87;100.00
11525;BME280;5819;49.648;8.330;2023-07-30T03:48:54;99947.44;;;18.84;100.00
11525;BME280;5819;49.648;8.330;2023-07-30T03:51:22;99941.81;;;18.78;100.00
11525;BME280;5819;49.648;8.330;2023-07-30T03:53:50;99939.91;;;18.80;100.00
11525;BME280;5819;49.648;8.330;2023-07-30T03:56:20;99950.25;;;18.72;100.00
11525;BME280;5819;49.648;8.330;2023-07-30T03:58:47;99945.81;;;18.72;100.00
11525;BME280;5819;49.648;8.330;2023-07-30T04:01:15;99945.25;;;18.68;100.00
11525;BME280;5819;49.648;8.330;2023-07-30T04:03:43;99951.09;;;18.72;100.00
11525;BME280;5819;49.648;8.330;2023-07-30T04:06:11;99960.78;;;18.72;100.00
11525;BME280;5819;49.648;8.330;2023-07-30T04:08:39;99960.09;;;18.69;100.00
11525;BME280;5819;49.648;8.330;2023-07-30T04:11:06;99960.22;;;18.68;100.00
11525;BME280;5819;49.648;8.330;2023-07-30T04:13:35;99967.38;;;18.66;100.00
11525;BME280;5819;49.648;8.330;2023-07-30T04:16:07;99977.56;;;18.70;100.00
11525;BME280;5819;49.648;8.330;2023-07-30T04:18:34;99971.22;;;18.73;100.00
11525;BME280;5819;49.648;8.330;2023-07-30T04:21:02;99975.75;;;18.71;100.00
11525;BME280;5819;49.648;8.330;2023-07-30T04:23:30;99981.03;;;18.71;100.00
11525;BME280;5819;49.648;8.330;2023-07-30T04:25:58;99986.44;;;18.69;100.00
11525;BME280;5819;49.648;8.330;2023-07-30T04:28:26;99984.19;;;18.65;100.00
11525;BME280;5819;49.648;8.330;2023-07-30T04:30:55;99991.63;;;18.60;100.00
11525;BME280;5819;49.648;8.330;2023-07-30T04:33:24;99982.41;;;18.65;100.00
11525;BME280;5819;49.648;8.330;2023-07-30T04:35:53;99975.44;;;18.64;100.00
11525;BME280;5819;49.648;8.330;2023-07-30T04:38:22;99974.34;;;18.67;100.00
11525;BME280;5819;49.648;8.330;2023-07-30T04:40:51;99983.34;;;18.64;100.00
11525;BME280;5819;49.648;8.330;2023-07-30T04:43:18;99972.28;;;18.70;100.00
11525;BME280;5819;49.648;8.330;2023-07-30T04:45:52;99977.34;;;18.62;100.00
11525;BME280;5819;49.648;8.330;2023-07-30T04:48:21;99981.78;;;18.62;100.00
11525;BME280;5819;49.648;8.330;2023-07-30T04:50:49;99986.09;;;18.63;100.00
11525;BME280;5819;49.648;8.330;2023-07-30T04:53:17;99985.50;;;18.59;100.00
11525;BME280;5819;49.648;8.330;2023-07-30T04:55:47;99979.63;;;18.67;100.00
11525;BME280;5819;49.648;8.330;2023-07-30T04:58:15;99969.44;;;18.74;100.00
11525;BME280;5819;49.648;8.330;2023-07-30T05:00:43;99970.59;;;18.81;100.00
11525;BME280;5819;49.648;8.330;2023-07-30T05:03:11;99967.94;;;18.81;100.00
11525;BME280;5819;49.648;8.330;2023-07-30T05:05:41;99967.94;;;18.81;100.00
11525;BME280;5819;49.648;8.330;2023-07-30T05:08:09;99967.38;;;18.77;100.00
11525;BME280;5819;49.648;8.330;2023-07-30T05:10:37;99966.38;;;18.78;100.00
11525;BME280;5819;49.648;8.330;2023-07-30T05:13:05;99971.53;;;18.80;100.00
11525;BME280;5819;49.648;8.330;2023-07-30T05:15:33;99969.09;;;18.88;100.00
11525;BME280;5819;49.648;8.330;2023-07-30T05:18:01;99966.09;;;18.92;100.00
11525;BME280;5819;49.648;8.330;2023-07-30T05:20:29;99975.81;;;18.92;100.00
11525;BME280;5819;49.648;8.330;2023-07-30T05:22:59;99972.06;;;18.94;100.00
11525;BME280;5819;49.648;8.330;2023-07-30T05:25:29;99965.47;;;19.00;100.00
11525;BME280;5819;49.648;8.330;2023-07-30T05:27:57;99978.25;;;19.04;100.00
11525;BME280;5819;49.648;8.330;2023-07-30T05:30:25;99969.97;;;19.09;100.00
11525;BME280;5819;49.648;8.330;2023-07-30T05:32:53;99960.56;;;19.16;100.00
11525;BME280;5819;49.648;8.330;2023-07-30T05:35:20;99954.66;;;19.24;100.00
11525;BME280;5819;49.648;8.330;2023-07-30T05:37:50;99958.19;;;19.34;100.00
11525;BME280;5819;49.648;8.330;2023-07-30T05:40:20;99958.63;;;19.59;100.00
11525;BME280;5819;49.648;8.330;2023-07-30T05:42:48;99947.91;;;19.82;100.00
11525;BME280;5819;49.648;8.330;2023-07-30T05:45:16;99951.09;;;19.85;100.00
11525;BME280;5819;49.648;8.330;2023-07-30T05:47:45;99956.06;;;19.79;100.00
11525;BME280;5819;49.648;8.330;2023-07-30T05:50:13;99954.34;;;19.68;100.00
11525;BME280;5819;49.648;8.330;2023-07-30T05:52:41;99952.16;;;19.73;100.00
11525;BME280;5819;49.648;8.330;2023-07-30T05:55:09;99951.06;;;19.76;100.00
11525;BME280;5819;49.648;8.330;2023-07-30T05:57:38;99958.41;;;19.72;100.00
11525;BME280;5819;49.648;8.330;2023-07-30T06:00:07;99957.84;;;19.69;100.00
11525;BME280;5819;49.648;8.330;2023-07-30T06:02:38;99954.91;;;19.72;100.00
11525;BME280;5819;49.648;8.330;2023-07-30T06:05:07;99961.78;;;19.84;100.00
11525;BME280;5819;49.648;8.330;2023-07-30T06:07:34;99961.16;;;20.01;100.00
11525;BME280;5819;49.648;8.330;2023-07-30T06:10:03;99967.00;;;20.14;100.00
11525;BME280;5819;49.648;8.330;2023-07-30T06:12:31;99966.88;;;20.16;100.00
11525;BME280;5819;49.648;8.330;2023-07-30T06:15:01;99965.75;;;20.18;100.00
11525;BME280;5819;49.648;8.330;2023-07-30T06:17:29;99969.25;;;20.19;100.00
11525;BME280;5819;49.648;8.330;2023-07-30T06:20:00;99975.22;;;20.11;100.00
11525;BME280;5819;49.648;8.330;2023-07-30T06:22:28;99969.47;;;20.06;100.00
11525;BME280;5819;49.648;8.330;2023-07-30T06:24:55;99969.25;;;20.09;100.00
11525;BME280;5819;49.648;8.330;2023-07-30T06:27:23;99976.16;;;20.10;100.00
11525;BME280;5819;49.648;8.330;2023-07-30T06:29:51;99969.41;;;20.17;100.00
11525;BME280;5819;49.648;8.330;2023-07-30T06:32:21;99968.34;;;20.29;100.00
11525;BME280;5819;49.648;8.330;2023-07-30T06:34:50;99968.06;;;20.32;100.00
11525;BME280;5819;49.648;8.330;2023-07-30T06:37:22;99970.16;;;20.38;100.00
11525;BME280;5819;49.648;8.330;2023-07-30T06:39:53;99960.31;;;20.60;100.00
11525;BME280;5819;49.648;8.330;2023-07-30T06:42:27;99963.34;;;20.74;100.00
11525;BME280;5819;49.648;8.330;2023-07-30T06:44:56;99958.50;;;20.79;100.00
11525;BME280;5819;49.648;8.330;2023-07-30T06:47:27;99964.34;;;20.73;100.00
11525;BME280;5819;49.648;8.330;2023-07-30T06:49:57;99976.75;;;20.73;100.00
11525;BME280;5819;49.648;8.330;2023-07-30T06:52:26;99977.16;;;20.78;100.00
11525;BME280;5819;49.648;8.330;2023-07-30T06:54:55;99974.38;;;20.89;100.00
11525;BME280;5819;49.648;8.330;2023-07-30T06:57:24;99975.75;;;21.02;100.00
11525;BME280;5819;49.648;8.330;2023-07-30T06:59:53;99977.88;;;21.18;100.00
11525;BME280;5819;49.648;8.330;2023-07-30T07:02:23;99977.69;;;21.10;100.00
11525;BME280;5819;49.648;8.330;2023-07-30T07:04:54;99975.63;;;21.14;100.00
11525;BME280;5819;49.648;8.330;2023-07-30T07:07:22;99975.91;;;21.30;100.00
11525;BME280;5819;49.648;8.330;2023-07-30T07:09:50;99986.06;;;21.34;100.00
11525;BME280;5819;49.648;8.330;2023-07-30T07:12:19;99987.56;;;21.08;100.00
11525;BME280;5819;49.648;8.330;2023-07-30T07:14:46;99989.38;;;21.08;100.00
11525;BME280;5819;49.648;8.330;2023-07-30T07:17:14;99995.13;;;21.13;100.00
11525;BME280;5819;49.648;8.330;2023-07-30T07:19:42;99984.25;;;21.16;100.00
11525;BME280;5819;49.648;8.330;2023-07-30T07:22:13;99981.59;;;21.25;100.00
11525;BME280;5819;49.648;8.330;2023-07-30T07:24:41;99982.44;;;21.26;100.00
11525;BME280;5819;49.648;8.330;2023-07-30T07:27:08;99982.81;;;21.40;100.00
11525;BME280;5819;49.648;8.330;2023-07-30T07:29:36;99971.88;;;21.63;100.00
11525;BME280;5819;49.648;8.330;2023-07-30T07:32:05;99975.31;;;21.82;100.00
11525;BME280;5819;49.648;8.330;2023-07-30T07:34:33;99971.16;;;22.07;100.00
11525;BME280;5819;49.648;8.330;2023-07-30T07:37:01;99978.94;;;22.18;100.00
11525;BME280;5819;49.648;8.330;2023-07-30T07:39:30;99978.94;;;22.18;100.00
11525;BME280;5819;49.648;8.330;2023-07-30T07:42:00;99981.53;;;22.01;100.00
11525;BME280;5819;49.648;8.330;2023-07-30T07:44:28;99982.94;;;21.95;100.00
11525;BME280;5819;49.648;8.330;2023-07-30T07:46:55;99981.16;;;21.86;100.00
11525;BME280;5819;49.648;8.330;2023-07-30T07:49:24;99979.84;;;22.00;100.00
11525;BME280;5819;49.648;8.330;2023-07-30T07:51:53;99971.16;;;22.07;99.75
11525;BME280;5819;49.648;8.330;2023-07-30T07:54:23;99961.56;;;22.06;96.59
11525;BME280;5819;49.648;8.330;2023-07-30T07:56:58;99975.34;;;22.10;95.10
11525;BME280;5819;49.648;8.330;2023-07-30T07:59:30;99971.75;;;22.28;92.08
11525;BME280;5819;49.648;8.330;2023-07-30T08:02:00;99976.53;;;21.98;90.35
11525;BME280;5819;49.648;8.330;2023-07-30T08:04:28;99974.41;;;22.01;89.22
11525;BME280;5819;49.648;8.330;2023-07-30T08:06:58;99981.00;;;21.97;89.16
11525;BME280;5819;49.648;8.330;2023-07-30T08:12:01;99978.22;;;22.16;87.33
11525;BME280;5819;49.648;8.330;2023-07-30T08:14:29;99975.59;;;22.16;87.93
11525;BME280;5819;49.648;8.330;2023-07-30T08:16:58;99974.31;;;22.20;88.31
11525;BME280;5819;49.648;8.330;2023-07-30T08:19:25;99976.84;;;22.12;85.73
11525;BME280;5819;49.648;8.330;2023-07-30T08:21:53;99975.63;;;22.07;85.32
11525;BME280;5819;49.648;8.330;2023-07-30T08:24:23;99983.03;;;22.03;83.74
11525;BME280;5819;49.648;8.330;2023-07-30T08:26:51;99984.56;;;22.06;83.62
11525;BME280;5819;49.648;8.330;2023-07-30T08:29:20;99977.06;;;22.01;82.93
11525;BME280;5819;49.648;8.330;2023-07-30T08:31:48;99996.22;;;22.22;84.06
11525;BME280;5819;49.648;8.330;2023-07-30T08:34:17;99976.03;;;22.57;79.05
11525;BME280;5819;49.648;8.330;2023-07-30T08:36:45;99981.97;;;22.68;76.38
11525;BME280;5819;49.648;8.330;2023-07-30T08:39:13;99984.31;;;22.71;76.86
11525;BME280;5819;49.648;8.330;2023-07-30T08:41:41;99979.16;;;22.88;75.66
11525;BME280;5819;49.648;8.330;2023-07-30T08:44:09;99977.00;;;23.09;76.32
11525;BME280;5819;49.648;8.330;2023-07-30T08:46:38;99962.03;;;23.25;74.61
11525;BME280;5819;49.648;8.330;2023-07-30T08:49:06;99972.16;;;23.04;74.57
11525;BME280;5819;49.648;8.330;2023-07-30T08:51:36;99957.72;;;23.24;74.60
11525;BME280;5819;49.648;8.330;2023-07-30T08:54:04;99956.38;;;23.20;72.80
11525;BME280;5819;49.648;8.330;2023-07-30T08:56:33;99962.31;;;22.97;72.31
11525;BME280;5819;49.648;8.330;2023-07-30T08:59:02;99952.31;;;23.34;73.33
11525;BME280;5819;49.648;8.330;2023-07-30T09:01:35;99955.56;;;23.46;73.12
11525;BME280;5819;49.648;8.330;2023-07-30T09:04:07;99965.22;;;23.47;75.25
11525;BME280;5819;49.648;8.330;2023-07-30T09:06:35;99963.69;;;23.44;73.12
11525;BME280;5819;49.648;8.330;2023-07-30T09:09:05;99979.28;;;23.47;70.69
11525;BME280;5819;49.648;8.330;2023-07-30T09:11:35;99973.69;;;23.50;70.80
11525;BME280;5819;49.648;8.330;2023-07-30T09:14:05;99980.50;;;23.35;71.39
11525;BME280;5819;49.648;8.330;2023-07-30T09:16:34;99991.44;;;23.32;72.87
11525;BME280;5819;49.648;8.330;2023-07-30T09:19:02;99984.97;;;23.26;70.60
11525;BME280;5819;49.648;8.330;2023-07-30T09:21:32;99996.66;;;23.42;71.58
11525;BME280;5819;49.648;8.330;2023-07-30T09:24:02;100006.59;;;23.57;71.95
11525;BME280;5819;49.648;8.330;2023-07-30T09:26:47;100023.28;;;23.06;70.86
11525;BME280;5819;49.648;8.330;2023-07-30T09:29:15;100047.81;;;22.46;72.58
11525;BME280;5819;49.648;8.330;2023-07-30T09:31:46;100053.72;;;22.03;73.96
11525;BME280;5819;49.648;8.330;2023-07-30T09:34:16;100056.66;;;22.00;74.58
11525;BME280;5819;49.648;8.330;2023-07-30T09:36:47;100071.34;;;21.75;75.08
11525;BME280;5819;49.648;8.330;2023-07-30T09:39:20;100071.09;;;21.68;75.94
11525;BME280;5819;49.648;8.330;2023-07-30T09:41:49;100073.44;;;21.81;75.43
11525;BME280;5819;49.648;8.330;2023-07-30T09:44:18;100073.75;;;21.59;74.81
11525;BME280;5819;49.648;8.330;2023-07-30T09:46:48;100067.75;;;22.22;74.08
11525;BME280;5819;49.648;8.330;2023-07-30T09:49:17;100067.03;;;22.30;73.31
11525;BME280;5819;49.648;8.330;2023-07-30T09:51:47;100065.09;;;22.22;73.79
11525;BME280;5819;49.648;8.330;2023-07-30T09:54:14;100059.94;;;22.75;74.01
11525;BME280;5819;49.648;8.330;2023-07-30T09:56:42;100056.63;;;23.09;70.82
11525;BME280;5819;49.648;8.330;2023-07-30T09:59:10;100058.72;;;23.41;70.35
11525;BME280;5819;49.648;8.330;2023-07-30T10:01:42;100050.59;;;23.86;67.90
11525;BME280;5819;49.648;8.330;2023-07-30T10:04:10;100038.75;;;24.48;66.24
11525;BME280;5819;49.648;8.330;2023-07-30T10:06:46;100031.41;;;24.92;63.07
11525;BME280;5819;49.648;8.330;2023-07-30T10:09:17;100025.78;;;25.59;61.02
11525;BME280;5819;49.648;8.330;2023-07-30T10:11:47;100019.78;;;26.13;59.35
11525;BME280;5819;49.648;8.330;2023-07-30T10:14:22;100015.44;;;26.59;58.29
11525;BME280;5819;49.648;8.330;2023-07-30T10:16:52;100027.91;;;26.35;57.74
11525;BME280;5819;49.648;8.330;2023-07-30T10:19:25;100031.06;;;26.39;57.32
11525;BME280;5819;49.648;8.330;2023-07-30T10:21:58;100061.53;;;24.92;59.91
11525;BME280;5819;49.648;8.330;2023-07-30T10:24:30;100078.81;;;24.12;60.90
11525;BME280;5819;49.648;8.330;2023-07-30T10:27:05;100075.44;;;24.78;58.29
11525;BME280;5819;49.648;8.330;2023-07-30T10:29:35;100065.50;;;24.88;56.88
11525;BME280;5819;49.648;8.330;2023-07-30T10:32:06;100063.56;;;25.06;56.81
11525;BME280;5819;49.648;8.330;2023-07-30T10:34:44;100057.59;;;25.53;54.93
11525;BME280;5819;49.648;8.330;2023-07-30T10:37:17;100074.03;;;25.08;56.25
11525;BME280;5819;49.648;8.330;2023-07-30T10:39:49;100092.81;;;24.14;59.06
11525;BME280;5819;49.648;8.330;2023-07-30T10:42:17;100105.00;;;23.56;60.43
11525;BME280;5819;49.648;8.330;2023-07-30T10:44:46;100116.38;;;23.13;62.53
11525;BME280;5819;49.648;8.330;2023-07-30T10:47:14;100106.06;;;23.10;60.31
11525;BME280;5819;49.648;8.330;2023-07-30T10:50:04;100096.44;;;23.26;58.75
11525;BME280;5819;49.648;8.330;2023-07-30T10:52:36;100068.75;;;24.66;54.10
11525;BME280;5819;49.648;8.330;2023-07-30T10:55:08;100064.06;;;25.34;52.67
11525;BME280;5819;49.648;8.330;2023-07-30T10:57:38;100048.09;;;25.42;50.72
11525;BME280;5819;49.648;8.330;2023-07-30T11:00:11;100037.63;;;26.20;48.92
11525;BME280;5819;49.648;8.330;2023-07-30T11:02:41;100062.91;;;25.53;49.34
11525;BME280;5819;49.648;8.330;2023-07-30T11:05:13;100075.75;;;24.67;51.97
11525;BME280;5819;49.648;8.330;2023-07-30T11:07:49;100093.88;;;24.04;52.96
11525;BME280;5819;49.648;8.330;2023-07-30T11:10:23;100112.44;;;23.96;54.30
11525;BME280;5819;49.648;8.330;2023-07-30T11:12:54;100101.22;;;23.84;53.98
11525;BME280;5819;49.648;8.330;2023-07-30T11:15:26;100113.03;;;23.64;55.02
11525;BME280;5819;49.648;8.330;2023-07-30T11:17:58;100129.66;;;23.66;56.56
11525;BME280;5819;49.648;8.330;2023-07-30T11:20:28;100149.22;;;23.83;60.17
11525;BME280;5819;49.648;8.330;2023-07-30T11:22:59;100134.13;;;24.09;57.25
11525;BME280;5819;49.648;8.330;2023-07-30T11:25:29;100140.88;;;23.77;57.61
11525;BME280;5819;49.648;8.330;2023-07-30T11:27:59;100164.31;;;22.84;58.76
11525;BME280;5819;49.648;8.330;2023-07-30T11:30:28;100179.25;;;22.48;59.37
11525;BME280;5819;49.648;8.330;2023-07-30T11:32:59;100178.09;;;22.14;58.28
11525;BME280;5819;49.648;8.330;2023-07-30T11:35:29;100175.38;;;22.43;57.62
11525;BME280;5819;49.648;8.330;2023-07-30T11:37:57;100151.25;;;23.89;55.07
11525;BME280;5819;49.648;8.330;2023-07-30T11:40:27;100141.44;;;24.07;52.62
11525;BME280;5819;49.648;8.330;2023-07-30T11:42:58;100179.19;;;23.22;55.50
11525;BME280;5819;49.648;8.330;2023-07-30T11:45:28;100177.25;;;22.97;54.95
11525;BME280;5819;49.648;8.330;2023-07-30T11:48:06;100183.59;;;22.39;55.74
11525;BME280;5819;49.648;8.330;2023-07-30T11:50:46;100180.16;;;22.66;55.26
11525;BME280;5819;49.648;8.330;2023-07-30T11:53:16;100168.94;;;23.80;52.78
11525;BME280;5819;49.648;8.330;2023-07-30T11:55:45;100146.25;;;24.63;50.71
11525;BME280;5819;49.648;8.330;2023-07-30T11:58:14;100157.41;;;24.66;49.94
11525;BME280;5819;49.648;8.330;2023-07-30T12:00:43;100171.53;;;24.33;51.66
11525;BME280;5819;49.648;8.330;2023-07-30T12:03:12;100174.66;;;23.85;52.99
11525;BME280;5819;49.648;8.330;2023-07-30T12:05:40;100166.53;;;24.12;52.23
11525;BME280;5819;49.648;8.330;2023-07-30T12:08:13;100174.38;;;23.70;52.88
11525;BME280;5819;49.648;8.330;2023-07-30T12:10:47;100182.75;;;23.30;52.87
11525;BME280;5819;49.648;8.330;2023-07-30T12:13:18;100199.44;;;22.96;53.90
11525;BME280;5819;49.648;8.330;2023-07-30T12:15:51;100189.41;;;23.17;54.59
11525;BME280;5819;49.648;8.330;2023-07-30T12:18:22;100207.38;;;23.05;55.23
11525;BME280;5819;49.648;8.330;2023-07-30T12:20:53;100214.22;;;22.71;54.90
11525;BME280;5819;49.648;8.330;2023-07-30T12:23:23;100212.78;;;22.67;54.61
11525;BME280;5819;49.648;8.330;2023-07-30T12:25:51;100219.38;;;22.72;55.63
11525;BME280;5819;49.648;8.330;2023-07-30T12:28:21;100203.22;;;24.09;54.04
11525;BME280;5819;49.648;8.330;2023-07-30T12:30:49;100172.50;;;25.00;49.22
11525;BME280;5819;49.648;8.330;2023-07-30T12:33:17;100168.84;;;25.67;48.21
11525;BME280;5819;49.648;8.330;2023-07-30T12:35:45;100163.72;;;25.07;48.75
11525;BME280;5819;49.648;8.330;2023-07-30T12:38:14;100168.91;;;25.25;47.05
11525;BME280;5819;49.648;8.330;2023-07-30T12:40:43;100174.38;;;24.40;48.00
11525;BME280;5819;49.648;8.330;2023-07-30T12:43:11;100188.91;;;24.02;50.01
11525;BME280;5819;49.648;8.330;2023-07-30T12:45:46;100203.13;;;23.57;50.86
11525;BME280;5819;49.648;8.330;2023-07-30T12:48:17;100203.31;;;23.28;50.83
11525;BME280;5819;49.648;8.330;2023-07-30T12:50:49;100208.31;;;23.31;50.96
11525;BME280;5819;49.648;8.330;2023-07-30T12:53:22;100216.97;;;23.33;51.86
11525;BME280;5819;49.648;8.330;2023-07-30T12:55:51;100192.94;;;24.32;49.33
11525;BME280;5819;49.648;8.330;2023-07-30T12:58:21;100215.22;;;24.31;51.07
11525;BME280;5819;49.648;8.330;2023-07-30T13:00:50;100220.38;;;23.71;51.57
11525;BME280;5819;49.648;8.330;2023-07-30T13:03:18;100228.41;;;23.79;51.25
11525;BME280;5819;49.648;8.330;2023-07-30T13:05:46;100215.28;;;23.77;50.65
11525;BME280;5819;49.648;8.330;2023-07-30T13:08:14;100230.34;;;23.42;51.70
11525;BME280;5819;49.648;8.330;2023-07-30T13:10:43;100230.38;;;23.32;51.75
11525;BME280;5819;49.648;8.330;2023-07-30T13:13:10;100207.16;;;24.48;50.46
11525;BME280;5819;49.648;8.330;2023-07-30T13:15:38;100188.91;;;25.29;47.44